sensor_id;sensor_type;location;lat;lon;timestamp;P1;durP1;ratioP1;P2;durP2;ratioP2
66575;SDS011;53428;47.686;16.584;2024-02-21T00:01:42;8.13;;;2.70;;
66575;SDS011;53428;47.686;16.584;2024-02-21T00:06:41;8.48;;;2.17;;
66575;SDS011;53428;47.686;16.584;2024-02-21T00:11:41;9.20;;;2.35;;
66575;SDS011;53428;47.686;16.584;2024-02-21T00:16:40;7.85;;;1.98;;
66575;SDS011;53428;47.686;16.584;2024-02-21T00:21:39;7.78;;;2.25;;
66575;SDS011;53428;47.686;16.584;2024-02-21T00:26:39;10.40;;;2.28;;
66575;SDS011;53428;47.686;16.584;2024-02-21T00:31:38;7.18;;;2.13;;
66575;SDS011;53428;47.686;16.584;2024-02-21T00:36:38;3.90;;;1.60;;
66575;SDS011;53428;47.686;16.584;2024-02-21T00:41:37;9.88;;;2.67;;
66575;SDS011;53428;47.686;16.584;2024-02-21T00:46:36;7.38;;;2.08;;
66575;SDS011;53428;47.686;16.584;2024-02-21T00:51:37;11.18;;;2.50;;
66575;SDS011;53428;47.686;16.584;2024-02-21T00:56:36;8.15;;;2.47;;
66575;SDS011;53428;47.686;16.584;2024-02-21T01:01:36;9.35;;;2.40;;
66575;SDS011;53428;47.686;16.584;2024-02-21T01:06:35;5.70;;;1.77;;
66575;SDS011;53428;47.686;16.584;2024-02-21T01:11:34;9.20;;;2.53;;
66575;SDS011;53428;47.686;16.584;2024-02-21T01:16:34;10.38;;;2.95;;
66575;SDS011;53428;47.686;16.584;2024-02-21T01:21:33;9.18;;;2.42;;
66575;SDS011;53428;47.686;16.584;2024-02-21T01:26:32;8.63;;;2.88;;
66575;SDS011;53428;47.686;16.584;2024-02-21T01:31:31;4.15;;;1.40;;
66575;SDS011;53428;47.686;16.584;2024-02-21T01:36:30;14.82;;;2.85;;
66575;SDS011;53428;47.686;16.584;2024-02-21T01:41:30;9.25;;;1.95;;
66575;SDS011;53428;47.686;16.584;2024-02-21T01:46:30;14.85;;;2.63;;
66575;SDS011;53428;47.686;16.584;2024-02-21T01:51:29;7.82;;;2.25;;
66575;SDS011;53428;47.686;16.584;2024-02-21T01:56:29;13.30;;;2.80;;
66575;SDS011;53428;47.686;16.584;2024-02-21T02:01:29;6.40;;;1.65;;
66575;SDS011;53428;47.686;16.584;2024-02-21T02:06:28;7.10;;;2.38;;
66575;SDS011;53428;47.686;16.584;2024-02-21T02:11:31;9.20;;;2.10;;
66575;SDS011;53428;47.686;16.584;2024-02-21T02:16:30;8.15;;;3.33;;
66575;SDS011;53428;47.686;16.584;2024-02-21T02:21:32;10.57;;;2.05;;
66575;SDS011;53428;47.686;16.584;2024-02-21T02:26:36;10.52;;;2.33;;
66575;SDS011;53428;47.686;16.584;2024-02-21T02:31:36;6.78;;;1.92;;
66575;SDS011;53428;47.686;16.584;2024-02-21T02:36:37;15.82;;;2.35;;
66575;SDS011;53428;47.686;16.584;2024-02-21T02:41:36;7.88;;;2.42;;
66575;SDS011;53428;47.686;16.584;2024-02-21T02:46:36;9.23;;;2.60;;
66575;SDS011;53428;47.686;16.584;2024-02-21T02:51:35;4.45;;;2.63;;
66575;SDS011;53428;47.686;16.584;2024-02-21T02:56:34;5.03;;;1.98;;
66575;SDS011;53428;47.686;16.584;2024-02-21T03:01:34;10.02;;;2.60;;
66575;SDS011;53428;47.686;16.584;2024-02-21T03:06:34;7.20;;;1.70;;
66575;SDS011;53428;47.686;16.584;2024-02-21T03:11:33;9.13;;;2.65;;
66575;SDS011;53428;47.686;16.584;2024-02-21T03:16:32;7.47;;;2.25;;
66575;SDS011;53428;47.686;16.584;2024-02-21T03:21:31;13.20;;;2.22;;
66575;SDS011;53428;47.686;16.584;2024-02-21T03:26:31;6.80;;;2.30;;
66575;SDS011;53428;47.686;16.584;2024-02-21T03:31:30;6.32;;;1.98;;
66575;SDS011;53428;47.686;16.584;2024-02-21T03:36:29;4.55;;;1.85;;
66575;SDS011;53428;47.686;16.584;2024-02-21T03:41:28;8.77;;;2.78;;
66575;SDS011;53428;47.686;16.584;2024-02-21T03:46:28;16.65;;;2.70;;
66575;SDS011;53428;47.686;16.584;2024-02-21T03:51:27;8.80;;;2.40;;
66575;SDS011;53428;47.686;16.584;2024-02-21T03:56:26;6.82;;;2.28;;
66575;SDS011;53428;47.686;16.584;2024-02-21T04:01:26;7.10;;;1.98;;
66575;SDS011;53428;47.686;16.584;2024-02-21T04:06:25;4.15;;;1.83;;
66575;SDS011;53428;47.686;16.584;2024-02-21T04:11:24;16.23;;;3.72;;
66575;SDS011;53428;47.686;16.584;2024-02-21T04:16:24;4.68;;;2.00;;
66575;SDS011;53428;47.686;16.584;2024-02-21T04:21:23;7.68;;;2.65;;
66575;SDS011;53428;47.686;16.584;2024-02-21T04:26:22;7.18;;;1.92;;
66575;SDS011;53428;47.686;16.584;2024-02-21T04:31:21;11.10;;;2.60;;
66575;SDS011;53428;47.686;16.584;2024-02-21T04:36:21;8.82;;;2.60;;
66575;SDS011;53428;47.686;16.584;2024-02-21T04:41:20;7.68;;;2.15;;
66575;SDS011;53428;47.686;16.584;2024-02-21T04:46:19;4.35;;;1.55;;
66575;SDS011;53428;47.686;16.584;2024-02-21T04:51:18;10.52;;;2.20;;
66575;SDS011;53428;47.686;16.584;2024-02-21T04:56:18;9.00;;;2.50;;
66575;SDS011;53428;47.686;16.584;2024-02-21T05:01:17;11.70;;;3.58;;
66575;SDS011;53428;47.686;16.584;2024-02-21T05:06:16;11.93;;;2.92;;
66575;SDS011;53428;47.686;16.584;2024-02-21T05:11:15;10.30;;;2.60;;
66575;SDS011;53428;47.686;16.584;2024-02-21T05:16:15;4.75;;;1.98;;
66575;SDS011;53428;47.686;16.584;2024-02-21T05:21:14;9.75;;;3.08;;
66575;SDS011;53428;47.686;16.584;2024-02-21T05:26:19;11.30;;;3.08;;
66575;SDS011;53428;47.686;16.584;2024-02-21T05:31:42;9.20;;;3.05;;
66575;SDS011;53428;47.686;16.584;2024-02-21T05:36:55;8.50;;;3.30;;
66575;SDS011;53428;47.686;16.584;2024-02-21T05:41:56;9.75;;;3.95;;
66575;SDS011;53428;47.686;16.584;2024-02-21T05:46:55;7.80;;;3.53;;
66575;SDS011;53428;47.686;16.584;2024-02-21T05:51:54;10.35;;;3.83;;
66575;SDS011;53428;47.686;16.584;2024-02-21T05:56:54;10.38;;;3.50;;
66575;SDS011;53428;47.686;16.584;2024-02-21T06:01:56;6.63;;;2.78;;
66575;SDS011;53428;47.686;16.584;2024-02-21T06:07:01;7.32;;;3.00;;
66575;SDS011;53428;47.686;16.584;2024-02-21T06:12:01;7.82;;;3.10;;
66575;SDS011;53428;47.686;16.584;2024-02-21T06:17:00;10.10;;;4.88;;
66575;SDS011;53428;47.686;16.584;2024-02-21T06:22:00;11.63;;;5.10;;
66575;SDS011;53428;47.686;16.584;2024-02-21T06:26:59;20.13;;;6.63;;
66575;SDS011;53428;47.686;16.584;2024-02-21T06:31:59;21.73;;;7.78;;
66575;SDS011;53428;47.686;16.584;2024-02-21T06:36:58;18.25;;;6.13;;
66575;SDS011;53428;47.686;16.584;2024-02-21T06:41:58;13.98;;;4.00;;
66575;SDS011;53428;47.686;16.584;2024-02-21T06:46:57;10.95;;;4.93;;
66575;SDS011;53428;47.686;16.584;2024-02-21T06:51:57;10.75;;;4.93;;
66575;SDS011;53428;47.686;16.584;2024-02-21T06:56:56;13.35;;;5.95;;
66575;SDS011;53428;47.686;16.584;2024-02-21T07:01:56;15.55;;;5.75;;
66575;SDS011;53428;47.686;16.584;2024-02-21T07:06:55;15.75;;;6.45;;
66575;SDS011;53428;47.686;16.584;2024-02-21T07:11:54;11.07;;;5.88;;
66575;SDS011;53428;47.686;16.584;2024-02-21T07:16:55;9.10;;;5.32;;
66575;SDS011;53428;47.686;16.584;2024-02-21T07:21:55;25.45;;;5.55;;
66575;SDS011;53428;47.686;16.584;2024-02-21T07:26:55;14.50;;;5.15;;
66575;SDS011;53428;47.686;16.584;2024-02-21T07:31:54;11.63;;;4.03;;
66575;SDS011;53428;47.686;16.584;2024-02-21T07:37:12;17.77;;;5.03;;
66575;SDS011;53428;47.686;16.584;2024-02-21T07:42:30;6.05;;;3.53;;
66575;SDS011;53428;47.686;16.584;2024-02-21T07:47:48;11.20;;;3.33;;
66575;SDS011;53428;47.686;16.584;2024-02-21T07:53:06;9.52;;;1.83;;
66575;SDS011;53428;47.686;16.584;2024-02-21T07:58:24;5.30;;;1.55;;
66575;SDS011;53428;47.686;16.584;2024-02-21T08:03:42;9.48;;;1.73;;
66575;SDS011;53428;47.686;16.584;2024-02-21T08:09:00;5.28;;;2.35;;
66575;SDS011;53428;47.686;16.584;2024-02-21T08:14:18;3.53;;;1.85;;
66575;SDS011;53428;47.686;16.584;2024-02-21T08:19:17;5.65;;;2.47;;
66575;SDS011;53428;47.686;16.584;2024-02-21T08:24:16;7.75;;;2.65;;
66575;SDS011;53428;47.686;16.584;2024-02-21T08:29:16;8.57;;;2.05;;
66575;SDS011;53428;47.686;16.584;2024-02-21T08:34:15;8.32;;;1.92;;
66575;SDS011;53428;47.686;16.584;2024-02-21T08:39:14;8.55;;;1.75;;
66575;SDS011;53428;47.686;16.584;2024-02-21T08:44:15;6.78;;;1.52;;
66575;SDS011;53428;47.686;16.584;2024-02-21T08:49:14;1.85;;;1.25;;
66575;SDS011;53428;47.686;16.584;2024-02-21T08:54:14;3.55;;;1.25;;
66575;SDS011;53428;47.686;16.584;2024-02-21T08:59:13;5.80;;;1.75;;
66575;SDS011;53428;47.686;16.584;2024-02-21T09:04:13;3.47;;;1.60;;
66575;SDS011;53428;47.686;16.584;2024-02-21T09:09:13;7.10;;;1.60;;
66575;SDS011;53428;47.686;16.584;2024-02-21T09:14:12;2.22;;;1.23;;
66575;SDS011;53428;47.686;16.584;2024-02-21T09:19:11;4.28;;;1.35;;
66575;SDS011;53428;47.686;16.584;2024-02-21T09:24:11;5.28;;;1.38;;
66575;SDS011;53428;47.686;16.584;2024-02-21T09:29:10;2.63;;;1.70;;
66575;SDS011;53428;47.686;16.584;2024-02-21T09:34:09;6.65;;;1.58;;
66575;SDS011;53428;47.686;16.584;2024-02-21T09:39:09;3.90;;;1.20;;
66575;SDS011;53428;47.686;16.584;2024-02-21T09:44:13;7.57;;;1.45;;
66575;SDS011;53428;47.686;16.584;2024-02-21T09:49:33;5.30;;;2.22;;
66575;SDS011;53428;47.686;16.584;2024-02-21T09:54:36;3.65;;;2.28;;
66575;SDS011;53428;47.686;16.584;2024-02-21T09:59:35;6.15;;;2.30;;
66575;SDS011;53428;47.686;16.584;2024-02-21T10:04:36;4.63;;;1.80;;
66575;SDS011;53428;47.686;16.584;2024-02-21T10:09:35;10.90;;;1.55;;
66575;SDS011;53428;47.686;16.584;2024-02-21T10:14:35;9.50;;;4.68;;
66575;SDS011;53428;47.686;16.584;2024-02-21T10:19:35;8.35;;;1.77;;
66575;SDS011;53428;47.686;16.584;2024-02-21T10:24:35;10.07;;;1.75;;
66575;SDS011;53428;47.686;16.584;2024-02-21T10:29:37;4.65;;;1.60;;
66575;SDS011;53428;47.686;16.584;2024-02-21T10:34:37;17.75;;;2.17;;
66575;SDS011;53428;47.686;16.584;2024-02-21T10:39:38;5.10;;;1.90;;
66575;SDS011;53428;47.686;16.584;2024-02-21T10:44:39;5.35;;;1.88;;
66575;SDS011;53428;47.686;16.584;2024-02-21T10:49:39;7.07;;;1.67;;
66575;SDS011;53428;47.686;16.584;2024-02-21T10:59:39;3.95;;;1.90;;
66575;SDS011;53428;47.686;16.584;2024-02-21T11:04:39;4.20;;;1.88;;
66575;SDS011;53428;47.686;16.584;2024-02-21T11:09:39;5.75;;;2.15;;
66575;SDS011;53428;47.686;16.584;2024-02-21T11:14:38;3.22;;;1.58;;
66575;SDS011;53428;47.686;16.584;2024-02-21T11:19:38;5.18;;;1.58;;
66575;SDS011;53428;47.686;16.584;2024-02-21T11:24:37;5.90;;;1.33;;
66575;SDS011;53428;47.686;16.584;2024-02-21T11:29:40;1.30;;;1.10;;
66575;SDS011;53428;47.686;16.584;2024-02-21T11:34:56;5.20;;;2.33;;
66575;SDS011;53428;47.686;16.584;2024-02-21T11:40:03;4.85;;;1.15;;
66575;SDS011;53428;47.686;16.584;2024-02-21T11:45:05;2.65;;;1.48;;
66575;SDS011;53428;47.686;16.584;2024-02-21T11:50:09;6.10;;;1.58;;
66575;SDS011;53428;47.686;16.584;2024-02-21T11:55:08;11.48;;;4.18;;
66575;SDS011;53428;47.686;16.584;2024-02-21T12:00:15;6.03;;;2.00;;
66575;SDS011;53428;47.686;16.584;2024-02-21T12:05:15;3.67;;;1.80;;
66575;SDS011;53428;47.686;16.584;2024-02-21T12:10:15;9.13;;;2.35;;
66575;SDS011;53428;47.686;16.584;2024-02-21T12:15:14;4.28;;;1.60;;
66575;SDS011;53428;47.686;16.584;2024-02-21T12:20:14;7.10;;;2.60;;
66575;SDS011;53428;47.686;16.584;2024-02-21T12:30:25;6.95;;;3.03;;
66575;SDS011;53428;47.686;16.584;2024-02-21T12:35:25;4.63;;;2.13;;
66575;SDS011;53428;47.686;16.584;2024-02-21T12:40:25;5.18;;;1.60;;
66575;SDS011;53428;47.686;16.584;2024-02-21T12:45:25;5.18;;;1.88;;
66575;SDS011;53428;47.686;16.584;2024-02-21T12:50:24;5.00;;;1.63;;
66575;SDS011;53428;47.686;16.584;2024-02-21T12:55:23;23.25;;;15.07;;
66575;SDS011;53428;47.686;16.584;2024-02-21T13:00:22;15.85;;;2.72;;
66575;SDS011;53428;47.686;16.584;2024-02-21T13:05:25;5.63;;;1.58;;
66575;SDS011;53428;47.686;16.584;2024-02-21T13:10:24;4.25;;;1.67;;
66575;SDS011;53428;47.686;16.584;2024-02-21T13:15:24;1.98;;;1.15;;
66575;SDS011;53428;47.686;16.584;2024-02-21T13:20:23;2.90;;;1.75;;
66575;SDS011;53428;47.686;16.584;2024-02-21T13:25:24;4.28;;;2.22;;
66575;SDS011;53428;47.686;16.584;2024-02-21T13:30:23;8.15;;;2.63;;
66575;SDS011;53428;47.686;16.584;2024-02-21T13:35:24;9.13;;;2.35;;
66575;SDS011;53428;47.686;16.584;2024-02-21T13:40:24;4.80;;;1.50;;
66575;SDS011;53428;47.686;16.584;2024-02-21T13:45:24;13.20;;;1.92;;
66575;SDS011;53428;47.686;16.584;2024-02-21T13:50:23;7.07;;;2.30;;
66575;SDS011;53428;47.686;16.584;2024-02-21T13:55:29;7.15;;;2.88;;
66575;SDS011;53428;47.686;16.584;2024-02-21T14:00:28;4.63;;;1.88;;
66575;SDS011;53428;47.686;16.584;2024-02-21T14:05:27;9.35;;;3.42;;
66575;SDS011;53428;47.686;16.584;2024-02-21T14:10:26;8.88;;;2.15;;
66575;SDS011;53428;47.686;16.584;2024-02-21T14:15:27;3.53;;;1.77;;
66575;SDS011;53428;47.686;16.584;2024-02-21T14:20:26;3.70;;;1.75;;
66575;SDS011;53428;47.686;16.584;2024-02-21T14:25:25;7.53;;;3.70;;
66575;SDS011;53428;47.686;16.584;2024-02-21T14:30:25;16.27;;;5.03;;
66575;SDS011;53428;47.686;16.584;2024-02-21T14:35:24;13.27;;;4.70;;
66575;SDS011;53428;47.686;16.584;2024-02-21T14:40:23;10.20;;;4.32;;
66575;SDS011;53428;47.686;16.584;2024-02-21T14:45:23;19.20;;;4.30;;
66575;SDS011;53428;47.686;16.584;2024-02-21T14:50:22;6.85;;;2.70;;
66575;SDS011;53428;47.686;16.584;2024-02-21T14:55:22;3.78;;;1.60;;
66575;SDS011;53428;47.686;16.584;2024-02-21T15:00:22;2.10;;;1.60;;
66575;SDS011;53428;47.686;16.584;2024-02-21T15:05:28;3.15;;;1.60;;
66575;SDS011;53428;47.686;16.584;2024-02-21T15:10:28;5.93;;;1.63;;
66575;SDS011;53428;47.686;16.584;2024-02-21T15:15:27;5.88;;;2.05;;
66575;SDS011;53428;47.686;16.584;2024-02-21T15:20:26;5.90;;;2.22;;
66575;SDS011;53428;47.686;16.584;2024-02-21T15:25:26;7.03;;;2.60;;
66575;SDS011;53428;47.686;16.584;2024-02-21T15:30:26;7.32;;;3.58;;
66575;SDS011;53428;47.686;16.584;2024-02-21T15:35:30;8.95;;;3.97;;
66575;SDS011;53428;47.686;16.584;2024-02-21T15:40:29;10.93;;;4.28;;
66575;SDS011;53428;47.686;16.584;2024-02-21T15:45:29;6.10;;;2.83;;
66575;SDS011;53428;47.686;16.584;2024-02-21T15:50:28;3.92;;;2.13;;
66575;SDS011;53428;47.686;16.584;2024-02-21T15:55:28;3.97;;;2.33;;
66575;SDS011;53428;47.686;16.584;2024-02-21T16:00:27;3.00;;;1.48;;
66575;SDS011;53428;47.686;16.584;2024-02-21T16:05:26;3.67;;;2.17;;
66575;SDS011;53428;47.686;16.584;2024-02-21T16:10:26;3.10;;;1.73;;
66575;SDS011;53428;47.686;16.584;2024-02-21T16:15:26;6.35;;;1.80;;
66575;SDS011;53428;47.686;16.584;2024-02-21T16:20:25;3.47;;;2.30;;
66575;SDS011;53428;47.686;16.584;2024-02-21T16:25:24;4.07;;;2.47;;
66575;SDS011;53428;47.686;16.584;2024-02-21T16:30:23;11.05;;;6.40;;
66575;SDS011;53428;47.686;16.584;2024-02-21T16:35:23;7.72;;;4.65;;
66575;SDS011;53428;47.686;16.584;2024-02-21T16:40:22;11.25;;;5.40;;
66575;SDS011;53428;47.686;16.584;2024-02-21T16:45:21;22.48;;;6.57;;
66575;SDS011;53428;47.686;16.584;2024-02-21T16:50:21;35.60;;;21.30;;
66575;SDS011;53428;47.686;16.584;2024-02-21T16:55:20;39.35;;;22.75;;
66575;SDS011;53428;47.686;16.584;2024-02-21T17:00:20;22.92;;;11.93;;
66575;SDS011;53428;47.686;16.584;2024-02-21T17:05:21;14.15;;;9.98;;
66575;SDS011;53428;47.686;16.584;2024-02-21T17:10:23;12.98;;;6.22;;
66575;SDS011;53428;47.686;16.584;2024-02-21T17:15:22;11.82;;;7.03;;
66575;SDS011;53428;47.686;16.584;2024-02-21T17:20:21;8.63;;;4.20;;
66575;SDS011;53428;47.686;16.584;2024-02-21T17:25:21;8.05;;;2.58;;
66575;SDS011;53428;47.686;16.584;2024-02-21T17:30:20;13.30;;;4.78;;
66575;SDS011;53428;47.686;16.584;2024-02-21T17:35:19;10.23;;;3.42;;
66575;SDS011;53428;47.686;16.584;2024-02-21T17:40:18;9.20;;;2.60;;
66575;SDS011;53428;47.686;16.584;2024-02-21T17:45:17;3.47;;;2.38;;
66575;SDS011;53428;47.686;16.584;2024-02-21T17:50:17;6.07;;;3.35;;
66575;SDS011;53428;47.686;16.584;2024-02-21T17:55:17;4.72;;;2.75;;
66575;SDS011;53428;47.686;16.584;2024-02-21T18:00:17;23.95;;;8.80;;
66575;SDS011;53428;47.686;16.584;2024-02-21T18:05:16;9.00;;;3.88;;
66575;SDS011;53428;47.686;16.584;2024-02-21T18:10:15;5.97;;;4.05;;
66575;SDS011;53428;47.686;16.584;2024-02-21T18:15:15;7.40;;;4.25;;
66575;SDS011;53428;47.686;16.584;2024-02-21T18:20:14;14.85;;;5.55;;
66575;SDS011;53428;47.686;16.584;2024-02-21T18:25:13;24.48;;;14.40;;
66575;SDS011;53428;47.686;16.584;2024-02-21T18:30:12;33.75;;;14.77;;
66575;SDS011;53428;47.686;16.584;2024-02-21T18:35:13;67.35;;;21.23;;
66575;SDS011;53428;47.686;16.584;2024-02-21T18:40:13;25.42;;;10.48;;
66575;SDS011;53428;47.686;16.584;2024-02-21T18:45:14;12.00;;;5.93;;
66575;SDS011;53428;47.686;16.584;2024-02-21T18:50:16;16.55;;;6.45;;
66575;SDS011;53428;47.686;16.584;2024-02-21T18:55:16;11.13;;;5.40;;
66575;SDS011;53428;47.686;16.584;2024-02-21T19:00:15;11.73;;;5.32;;
66575;SDS011;53428;47.686;16.584;2024-02-21T19:05:21;11.05;;;6.50;;
66575;SDS011;53428;47.686;16.584;2024-02-21T19:10:20;6.28;;;3.35;;
66575;SDS011;53428;47.686;16.584;2024-02-21T19:15:20;4.40;;;3.17;;
66575;SDS011;53428;47.686;16.584;2024-02-21T19:20:20;4.40;;;2.30;;
66575;SDS011;53428;47.686;16.584;2024-02-21T19:25:19;12.73;;;5.28;;
66575;SDS011;53428;47.686;16.584;2024-02-21T19:30:19;10.07;;;3.78;;
66575;SDS011;53428;47.686;16.584;2024-02-21T19:35:21;6.88;;;3.70;;
66575;SDS011;53428;47.686;16.584;2024-02-21T19:40:20;4.45;;;3.10;;
66575;SDS011;53428;47.686;16.584;2024-02-21T19:45:21;5.32;;;3.22;;
66575;SDS011;53428;47.686;16.584;2024-02-21T19:50:21;4.25;;;2.65;;
66575;SDS011;53428;47.686;16.584;2024-02-21T19:55:21;2.63;;;1.80;;
66575;SDS011;53428;47.686;16.584;2024-02-21T20:00:20;3.83;;;2.35;;
66575;SDS011;53428;47.686;16.584;2024-02-21T20:05:20;6.10;;;2.83;;
66575;SDS011;53428;47.686;16.584;2024-02-21T20:10:19;3.95;;;2.22;;
66575;SDS011;53428;47.686;16.584;2024-02-21T20:15:20;2.80;;;1.95;;
66575;SDS011;53428;47.686;16.584;2024-02-21T20:20:19;2.97;;;2.60;;
66575;SDS011;53428;47.686;16.584;2024-02-21T20:25:20;4.70;;;3.17;;
66575;SDS011;53428;47.686;16.584;2024-02-21T20:30:20;5.20;;;3.55;;
66575;SDS011;53428;47.686;16.584;2024-02-21T20:35:19;6.57;;;3.03;;
66575;SDS011;53428;47.686;16.584;2024-02-21T20:40:18;4.65;;;2.92;;
66575;SDS011;53428;47.686;16.584;2024-02-21T20:45:18;10.98;;;3.50;;
66575;SDS011;53428;47.686;16.584;2024-02-21T20:50:17;6.00;;;3.10;;
66575;SDS011;53428;47.686;16.584;2024-02-21T20:55:18;3.80;;;2.70;;
66575;SDS011;53428;47.686;16.584;2024-02-21T21:00:23;4.47;;;2.88;;
66575;SDS011;53428;47.686;16.584;2024-02-21T21:05:22;5.93;;;2.78;;
66575;SDS011;53428;47.686;16.584;2024-02-21T21:10:23;5.32;;;3.67;;
66575;SDS011;53428;47.686;16.584;2024-02-21T21:15:22;6.25;;;3.35;;
66575;SDS011;53428;47.686;16.584;2024-02-21T21:20:22;4.60;;;3.00;;
66575;SDS011;53428;47.686;16.584;2024-02-21T21:30:24;5.43;;;3.55;;
66575;SDS011;53428;47.686;16.584;2024-02-21T21:35:24;10.10;;;3.67;;
66575;SDS011;53428;47.686;16.584;2024-02-21T21:40:24;6.50;;;3.15;;
66575;SDS011;53428;47.686;16.584;2024-02-21T21:45:25;6.57;;;3.83;;
66575;SDS011;53428;47.686;16.584;2024-02-21T21:50:25;6.10;;;3.80;;
66575;SDS011;53428;47.686;16.584;2024-02-21T21:55:25;6.97;;;3.55;;
66575;SDS011;53428;47.686;16.584;2024-02-21T22:00:24;7.63;;;4.30;;
66575;SDS011;53428;47.686;16.584;2024-02-21T22:05:23;5.45;;;3.67;;
66575;SDS011;53428;47.686;16.584;2024-02-21T22:10:22;7.13;;;3.97;;
66575;SDS011;53428;47.686;16.584;2024-02-21T22:15:21;5.13;;;2.95;;
66575;SDS011;53428;47.686;16.584;2024-02-21T22:20:21;10.40;;;4.90;;
66575;SDS011;53428;47.686;16.584;2024-02-21T22:25:24;21.27;;;8.38;;
66575;SDS011;53428;47.686;16.584;2024-02-21T22:30:23;35.58;;;13.07;;
66575;SDS011;53428;47.686;16.584;2024-02-21T22:35:24;9.18;;;4.78;;
66575;SDS011;53428;47.686;16.584;2024-02-21T22:40:23;8.30;;;4.13;;
66575;SDS011;53428;47.686;16.584;2024-02-21T22:45:22;6.15;;;3.20;;
66575;SDS011;53428;47.686;16.584;2024-02-21T22:50:22;5.45;;;3.40;;
66575;SDS011;53428;47.686;16.584;2024-02-21T22:55:21;5.97;;;4.10;;
66575;SDS011;53428;47.686;16.584;2024-02-21T23:00:20;7.25;;;3.53;;
66575;SDS011;53428;47.686;16.584;2024-02-21T23:05:20;5.88;;;3.58;;
66575;SDS011;53428;47.686;16.584;2024-02-21T23:10:22;11.73;;;6.10;;
66575;SDS011;53428;47.686;16.584;2024-02-21T23:15:24;6.03;;;3.10;;
66575;SDS011;53428;47.686;16.584;2024-02-21T23:20:23;9.75;;;4.63;;
66575;SDS011;53428;47.686;16.584;2024-02-21T23:25:23;9.90;;;4.97;;
66575;SDS011;53428;47.686;16.584;2024-02-21T23:30:22;10.27;;;4.40;;
66575;SDS011;53428;47.686;16.584;2024-02-21T23:35:22;7.20;;;4.05;;
66575;SDS011;53428;47.686;16.584;2024-02-21T23:40:22;7.47;;;4.10;;
66575;SDS011;53428;47.686;16.584;2024-02-21T23:45:22;7.47;;;3.50;;
66575;SDS011;53428;47.686;16.584;2024-02-21T23:50:21;6.72;;;4.40;;
66575;SDS011;53428;47.686;16.584;2024-02-21T23:55:20;6.57;;;3.88;;
